Time;durP1;ratioP1;P1;durP2;ratioP2;P2;SDS_P1;SDS_P2;PMS_P1;PMS_P2;Temp;Humidity;BMP_temperature;BMP_pressure;BME280_temperature;BME280_humidity;BME280_pressure;Samples;Min_cycle;Max_cycle;Signal;HPM_P1;HPM_P2
2023/08/01 00:00:52;;;;;;;13.30;11.02;;;;;;;-146.25;100.00;52364.13;2086871;28;35113;-69
2023/08/01 00:01:54;;;;;;;13.75;10.80;;;;;;;-146.25;100.00;52343.88;2086405;28;22877;-69
2023/08/01 00:02:58;;;;;;;12.68;10.52;;;;;;;-146.25;100.00;52349.94;2079836;28;20038;-69
2023/08/01 00:03:59;;;;;;;13.73;11.30;;;;;;;-146.25;100.00;52339.81;2079053;28;36001;-68
2023/08/01 00:05:01;;;;;;;15.48;10.55;;;;;;;-146.25;100.00;52388.47;2080465;28;35040;-70
2023/08/01 00:06:03;;;;;;;14.95;10.80;;;;;;;-146.25;100.00;52347.91;2080510;28;32556;-70
2023/08/01 00:07:05;;;;;;;14.80;11.07;;;;;;;-146.25;100.00;52311.44;2081001;28;37295;-69
2023/08/01 00:08:07;;;;;;;14.13;11.20;;;;;;;-146.25;100.00;52335.75;2080716;28;33617;-69
2023/08/01 00:09:08;;;;;;;12.85;11.10;;;;;;;-146.25;100.00;52311.44;2080699;28;33699;-69
2023/08/01 00:10:10;;;;;;;14.55;12.18;;;;;;;-146.25;100.00;52372.25;2080653;28;36197;-70
2023/08/01 00:11:14;;;;;;;14.18;11.70;;;;;;;-146.25;100.00;52337.78;2080440;28;35203;-68
2023/08/01 00:12:15;;;;;;;13.70;11.02;;;;;;;-146.25;100.00;52339.81;2080950;28;31697;-69
2023/08/01 00:13:18;;;;;;;15.20;11.75;;;;;;;-146.25;100.00;52362.13;2081070;28;20182;-69
2023/08/01 00:14:23;;;;;;;14.82;11.90;;;;;;;-146.25;100.00;52339.81;2080588;28;37778;-70
2023/08/01 00:15:25;;;;;;;16.20;12.10;;;;;;;-146.25;100.00;52351.97;2080882;28;30169;-69
2023/08/01 00:16:27;;;;;;;12.98;11.60;;;;;;;-146.25;100.00;52335.75;2081001;28;33584;-69
2023/08/01 00:17:29;;;;;;;14.13;11.98;;;;;;;-146.25;100.00;52362.13;2080309;28;36819;-69
2023/08/01 00:18:31;;;;;;;16.77;13.30;;;;;;;-146.25;100.00;52380.38;2088361;28;35511;-69
2023/08/01 00:19:32;;;;;;;19.10;12.93;;;;;;;-146.25;100.00;52382.38;2088071;28;34355;-69
2023/08/01 00:20:34;;;;;;;17.60;13.35;;;;;;;-146.25;100.00;52339.81;2080340;28;34269;-70
2023/08/01 00:21:38;;;;;;;14.80;13.05;;;;;;;-146.25;100.00;52364.13;2081421;28;20151;-69
2023/08/01 00:22:40;;;;;;;14.77;12.90;;;;;;;-146.25;100.00;52408.75;2079842;28;36941;-69
2023/08/01 00:23:43;;;;;;;17.23;13.30;;;;;;;-146.25;100.00;52400.63;2080046;28;34607;-70
2023/08/01 00:24:47;;;;;;;17.67;13.80;;;;;;;-146.25;100.00;52390.50;2080614;28;33173;-69
2023/08/01 00:25:51;;;;;;;14.90;13.20;;;;;;;-146.25;100.00;52386.44;2080184;28;34804;-69
2023/08/01 00:26:55;;;;;;;16.35;13.75;;;;;;;-146.25;100.00;52364.13;2080582;28;37135;-69
2023/08/01 00:27:57;;;;;;;16.92;13.27;;;;;;;-146.25;100.00;52356.03;2080746;28;23610;-70
2023/08/01 00:28:59;;;;;;;16.33;13.52;;;;;;;-146.25;100.00;52343.88;2080249;28;30561;-70
2023/08/01 00:30:01;;;;;;;19.17;13.80;;;;;;;-146.25;100.00;52386.44;2080423;28;31029;-70
2023/08/01 00:31:10;;;;;;;16.65;13.07;;;;;;;-146.25;100.00;52368.19;2080097;28;24912;-69
2023/08/01 00:32:12;;;;;;;16.35;13.18;;;;;;;-146.25;100.00;52354.00;2080274;28;20049;-68
2023/08/01 00:33:14;;;;;;;14.93;13.35;;;;;;;-146.25;100.00;52337.78;2071668;28;21792;-70
2023/08/01 00:34:16;;;;;;;19.70;14.35;;;;;;;-146.25;100.00;52380.38;2080086;28;29145;-69
2023/08/01 00:35:18;;;;;;;14.60;13.00;;;;;;;-146.25;100.00;52374.28;2081074;28;20049;-70
2023/08/01 00:36:22;;;;;;;19.42;13.82;;;;;;;-146.25;100.00;52374.28;2088464;28;29736;-69
2023/08/01 00:37:24;;;;;;;17.45;13.60;;;;;;;-146.25;100.00;52341.84;2087364;28;31709;-70
2023/08/01 00:38:27;;;;;;;16.90;12.50;;;;;;;-146.25;100.00;52370.22;2080927;28;20128;-69
2023/08/01 00:39:29;;;;;;;18.25;13.88;;;;;;;-146.25;100.00;52349.94;2080657;28;20918;-69
2023/08/01 00:40:36;;;;;;;15.98;13.55;;;;;;;-146.25;100.00;52339.81;2089453;28;20038;-70
2023/08/01 00:41:38;;;;;;;18.58;13.00;;;;;;;-146.25;100.00;52358.06;2071297;28;24203;-69
2023/08/01 00:42:40;;;;;;;17.30;13.23;;;;;;;-146.25;100.00;52360.09;2072327;28;30809;-70
2023/08/01 00:43:42;;;;;;;16.33;13.73;;;;;;;-146.25;100.00;52329.66;2080265;28;20197;-69
2023/08/01 00:44:43;;;;;;;19.02;12.93;;;;;;;-146.25;100.00;52374.28;2071979;28;24277;-70
2023/08/01 00:45:46;;;;;;;19.05;13.48;;;;;;;-146.25;100.00;52368.19;2071926;28;29663;-69
2023/08/01 00:46:49;;;;;;;15.57;12.57;;;;;;;-146.25;100.00;52388.47;2072326;28;20050;-69
2023/08/01 00:47:52;;;;;;;17.23;13.77;;;;;;;-146.25;100.00;52356.03;2080674;28;21605;-70
2023/08/01 00:48:57;;;;;;;19.17;13.40;;;;;;;-146.25;100.00;52366.16;2080450;28;20034;-70
2023/08/01 00:50:00;;;;;;;13.52;12.13;;;;;;;-146.25;100.00;52400.63;2080163;28;20903;-70
2023/08/01 00:51:08;;;;;;;17.27;14.32;;;;;;;-146.25;100.00;52394.56;2080555;28;20137;-70
2023/08/01 00:52:10;;;;;;;15.07;13.43;;;;;;;-146.25;100.00;52347.91;2080719;28;20169;-70
2023/08/01 00:53:12;;;;;;;17.80;13.45;;;;;;;-146.25;100.00;52412.81;2079987;28;27369;-70
2023/08/01 00:54:14;;;;;;;17.73;13.35;;;;;;;-146.25;100.00;52360.09;2088380;28;20037;-70
2023/08/01 00:55:19;;;;;;;19.15;14.23;;;;;;;-146.25;100.00;52347.91;2079976;28;26222;-70
2023/08/01 00:56:20;;;;;;;17.90;13.20;;;;;;;-146.25;100.00;52366.16;2080171;28;29320;-69
2023/08/01 00:57:22;;;;;;;17.65;14.07;;;;;;;-146.25;100.00;52368.19;2071725;28;26978;-70
2023/08/01 00:58:25;;;;;;;15.48;13.35;;;;;;;-146.25;100.00;52364.13;2063762;28;30179;-69
2023/08/01 00:59:29;;;;;;;15.70;13.40;;;;;;;-146.25;100.00;52345.91;2063751;28;24988;-70
2023/08/01 01:00:33;;;;;;;18.05;12.85;;;;;;;-146.25;100.00;52366.16;2065153;28;20066;-70
2023/08/01 01:01:36;;;;;;;15.25;12.90;;;;;;;-146.25;100.00;52372.25;2072509;28;20046;-69
2023/08/01 01:02:38;;;;;;;16.15;13.70;;;;;;;-146.25;100.00;52349.94;2080487;28;20156;-69
2023/08/01 01:03:40;;;;;;;15.98;13.35;;;;;;;-146.25;100.00;52392.53;2080705;28;21926;-69
2023/08/01 01:04:42;;;;;;;16.67;13.32;;;;;;;-146.25;100.00;52362.13;2081166;28;20164;-69
2023/08/01 01:06:06;;;;;;;17.48;13.40;;;;;;;-146.25;100.00;52370.22;2080970;28;20045;-69
2023/08/01 01:07:08;;;;;;;15.20;12.05;;;;;;;-146.25;100.00;52358.06;2080189;28;20042;-70
2023/08/01 01:08:10;;;;;;;19.20;13.38;;;;;;;-146.25;100.00;52351.97;2072111;28;24127;-70
2023/08/01 01:09:20;;;;;;;17.15;12.70;;;;;;;-146.25;100.00;52386.44;2072118;28;26477;-70
2023/08/01 01:10:21;;;;;;;16.38;12.85;;;;;;;-146.25;100.00;52392.53;2081044;28;33300;-70
2023/08/01 01:11:23;;;;;;;14.10;12.38;;;;;;;-146.25;100.00;52343.88;2079762;28;25076;-70
2023/08/01 01:12:25;;;;;;;16.13;12.20;;;;;;;-146.25;100.00;52384.41;2079724;28;32118;-70
2023/08/01 01:13:28;;;;;;;13.68;11.88;;;;;;;-146.25;100.00;52364.13;2079359;28;20053;-69
2023/08/01 01:14:31;;;;;;;16.27;11.63;;;;;;;-146.25;100.00;52370.22;2088175;28;30250;-70
2023/08/01 01:15:33;;;;;;;15.77;11.65;;;;;;;-146.25;100.00;52396.59;2080705;28;20946;-70
2023/08/01 01:16:35;;;;;;;15.45;11.50;;;;;;;-146.25;100.00;52368.19;2079869;28;24932;-69
2023/08/01 01:17:36;;;;;;;13.57;10.75;;;;;;;-146.25;100.00;52382.38;2079858;28;27762;-70
2023/08/01 01:18:38;;;;;;;14.13;10.70;;;;;;;-146.25;100.00;52368.19;2087810;28;27226;-70
2023/08/01 01:19:40;;;;;;;14.85;11.30;;;;;;;-146.25;100.00;52394.56;2080064;28;26974;-69
2023/08/01 01:20:42;;;;;;;11.32;10.10;;;;;;;-146.25;100.00;52374.28;2080060;28;29784;-69
2023/08/01 01:21:45;;;;;;;16.98;10.95;;;;;;;-146.25;100.00;52333.72;2079333;28;31425;-69
2023/08/01 01:22:47;;;;;;;11.73;9.77;;;;;;;-146.25;100.00;52349.94;2079891;28;21541;-70
2023/08/01 01:23:51;;;;;;;13.65;10.07;;;;;;;-146.25;100.00;52388.47;2063669;28;28191;-70
2023/08/01 01:24:58;;;;;;;13.32;10.30;;;;;;;-146.25;100.00;52370.22;2073012;28;20031;-69
2023/08/01 01:26:00;;;;;;;17.20;10.45;;;;;;;-146.25;100.00;52372.25;2070761;28;32290;-70
2023/08/01 01:27:04;;;;;;;12.63;10.15;;;;;;;-146.25;100.00;52362.13;2064360;28;24855;-71
2023/08/01 01:28:10;;;;;;;14.35;9.63;;;;;;;-146.25;100.00;52347.91;2063462;28;33249;-69
2023/08/01 01:29:13;;;;;;;12.52;9.13;;;;;;;-146.25;100.00;52356.03;2073340;28;27402;-68
2023/08/01 01:30:20;;;;;;;12.85;10.52;;;;;;;-146.25;100.00;52364.13;2088395;28;20068;-69
2023/08/01 01:31:22;;;;;;;15.30;9.90;;;;;;;-146.25;100.00;52378.34;2088028;28;26191;-68
2023/08/01 01:32:26;;;;;;;13.07;9.77;;;;;;;-146.25;100.00;52384.41;2088385;28;20045;-68
2023/08/01 01:33:35;;;;;;;15.57;9.85;;;;;;;-146.25;100.00;52345.91;2088384;28;20114;-67
2023/08/01 01:34:37;;;;;;;11.73;9.18;;;;;;;-146.25;100.00;52384.41;2086979;28;23254;-67
2023/08/01 01:35:39;;;;;;;11.95;9.63;;;;;;;-146.25;100.00;52356.03;2079455;28;34650;-67
2023/08/01 01:36:42;;;;;;;13.70;9.88;;;;;;;-146.25;100.00;52331.69;2071833;28;20116;-66
2023/08/01 01:37:43;;;;;;;17.20;10.00;;;;;;;-146.25;100.00;52372.25;2080055;28;24249;-67
2023/08/01 01:38:45;;;;;;;12.77;9.93;;;;;;;-146.25;100.00;52366.16;2079673;28;26888;-66
2023/08/01 01:39:47;;;;;;;15.38;9.65;;;;;;;-146.25;100.00;52370.22;2079918;28;26921;-67
2023/08/01 01:40:49;;;;;;;15.73;9.43;;;;;;;-146.25;100.00;52372.25;2080123;28;27259;-67
2023/08/01 01:41:50;;;;;;;15.25;9.63;;;;;;;-146.25;100.00;52360.09;2079260;28;26617;-67
2023/08/01 01:42:54;;;;;;;13.77;9.43;;;;;;;-146.25;100.00;52370.22;2079658;28;23739;-67
2023/08/01 01:43:56;;;;;;;15.48;10.27;;;;;;;-146.25;100.00;52354.00;2087936;28;28793;-67
2023/08/01 01:44:58;;;;;;;14.82;9.90;;;;;;;-146.25;100.00;52362.13;2079427;28;25086;-67
2023/08/01 01:46:02;;;;;;;13.43;9.43;;;;;;;-146.25;100.00;52402.66;2079650;28;20041;-67
2023/08/01 01:47:04;;;;;;;16.77;10.82;;;;;;;-146.25;100.00;52386.44;2087870;28;20046;-67
2023/08/01 01:48:06;;;;;;;15.32;9.90;;;;;;;-146.25;100.00;52394.56;2080382;28;25818;-67
2023/08/01 01:49:07;;;;;;;15.88;9.82;;;;;;;-146.25;100.00;52329.66;2079802;28;20164;-67
2023/08/01 01:50:09;;;;;;;14.25;9.20;;;;;;;-146.25;100.00;52378.34;2066401;28;20046;-67
2023/08/01 01:51:11;;;;;;;17.58;8.80;;;;;;;-146.25;100.00;52372.25;2071462;28;20855;-66
2023/08/01 01:52:15;;;;;;;12.18;9.02;;;;;;;-146.25;100.00;52358.06;2070981;28;24913;-67
2023/08/01 01:53:17;;;;;;;11.38;8.88;;;;;;;-146.25;100.00;52347.91;2071900;28;23946;-67
2023/08/01 01:54:18;;;;;;;14.88;9.13;;;;;;;-146.25;100.00;52394.56;2071472;28;35005;-67
2023/08/01 01:55:20;;;;;;;11.85;8.57;;;;;;;-146.25;100.00;52380.38;2071666;28;20926;-67
2023/08/01 01:56:23;;;;;;;12.63;9.30;;;;;;;-146.25;100.00;52341.84;2071747;28;20038;-67
2023/08/01 01:57:25;;;;;;;14.40;8.48;;;;;;;-146.25;100.00;52364.13;2071514;28;20101;-66
2023/08/01 01:58:29;;;;;;;12.68;8.40;;;;;;;-146.25;100.00;52354.00;2063531;28;20947;-67
2023/08/01 01:59:30;;;;;;;13.63;8.27;;;;;;;-146.25;100.00;52386.44;2064395;28;20879;-68
2023/08/01 02:00:32;;;;;;;11.48;7.68;;;;;;;-146.25;100.00;52388.47;2074308;28;20050;-66
2023/08/01 02:01:34;;;;;;;11.02;7.35;;;;;;;-146.25;100.00;52343.88;2070787;28;45165;-66
2023/08/01 02:02:36;;;;;;;10.98;6.72;;;;;;;-146.25;100.00;52370.22;2071841;28;22539;-68
2023/08/01 02:03:39;;;;;;;11.15;6.80;;;;;;;-146.25;100.00;52374.28;2079845;28;20104;-66
2023/08/01 02:04:41;;;;;;;8.15;5.25;;;;;;;-146.25;100.00;52354.00;2079842;28;20942;-69
2023/08/01 02:05:44;;;;;;;7.63;5.05;;;;;;;-146.25;100.00;52366.16;2079320;28;30498;-67
2023/08/01 02:06:46;;;;;;;7.50;5.03;;;;;;;-146.25;100.00;52356.03;2072089;28;27615;-66
2023/08/01 02:07:48;;;;;;;7.88;4.68;;;;;;;-146.25;100.00;52341.84;2079737;28;20046;-67
2023/08/01 02:08:50;;;;;;;7.10;4.07;;;;;;;-146.25;100.00;52343.88;2079785;28;20081;-68
2023/08/01 02:09:51;;;;;;;6.15;3.95;;;;;;;-146.25;100.00;52351.97;2079775;28;20132;-67
2023/08/01 02:10:55;;;;;;;8.25;3.65;;;;;;;-146.25;100.00;52404.69;2079644;28;20045;-67
2023/08/01 02:11:57;;;;;;;7.50;3.60;;;;;;;-146.25;100.00;52386.44;2071717;28;20043;-67
2023/08/01 02:12:59;;;;;;;7.38;3.45;;;;;;;-146.25;100.00;52398.59;2071360;28;20153;-67
2023/08/01 02:14:02;;;;;;;5.53;3.17;;;;;;;-146.25;100.00;52368.19;2079453;28;32842;-67
2023/08/01 02:15:05;;;;;;;7.60;3.20;;;;;;;-146.25;100.00;52412.81;2079707;28;21041;-67
2023/08/01 02:16:07;;;;;;;6.53;2.72;;;;;;;-146.25;100.00;52366.16;2079755;28;20042;-67
2023/08/01 02:17:09;;;;;;;6.43;2.85;;;;;;;-146.25;100.00;52372.25;2071352;28;20053;-67
2023/08/01 02:18:13;;;;;;;7.15;2.97;;;;;;;-146.25;100.00;52356.03;2071719;28;20035;-67
2023/08/01 02:19:15;;;;;;;5.63;2.63;;;;;;;-146.25;100.00;52364.13;2071635;28;20042;-67
2023/08/01 02:20:17;;;;;;;6.80;2.85;;;;;;;-146.25;100.00;52343.88;2063291;28;20046;-67
2023/08/01 02:21:18;;;;;;;5.93;2.97;;;;;;;-146.25;100.00;52343.88;2071829;28;20096;-67
2023/08/01 02:22:27;;;;;;;5.13;3.22;;;;;;;-146.25;100.00;52376.31;2079650;28;20202;-68
2023/08/01 02:23:29;;;;;;;4.20;3.10;;;;;;;-146.25;100.00;52420.91;2087848;28;20037;-67
2023/08/01 02:24:32;;;;;;;5.20;3.20;;;;;;;-146.25;100.00;52386.44;2079537;28;20120;-68
2023/08/01 02:25:39;;;;;;;8.65;3.67;;;;;;;-146.25;100.00;52370.22;2079274;28;27749;-67
2023/08/01 02:26:42;;;;;;;5.78;3.60;;;;;;;-146.25;100.00;52384.41;2080154;28;20046;-67
2023/08/01 02:27:43;;;;;;;6.97;3.50;;;;;;;-146.25;100.00;52384.41;2079410;28;22634;-67
2023/08/01 02:28:45;;;;;;;6.60;4.03;;;;;;;-146.25;100.00;52400.63;2079177;28;34804;-68
2023/08/01 02:29:50;;;;;;;6.57;4.20;;;;;;;-146.25;100.00;52380.38;2079653;28;20215;-67
2023/08/01 02:30:52;;;;;;;6.68;3.75;;;;;;;-146.25;100.00;52360.09;2079137;28;31199;-67
2023/08/01 02:31:57;;;;;;;8.68;4.65;;;;;;;-146.25;100.00;52380.38;2080302;28;20149;-66
2023/08/01 02:32:59;;;;;;;9.48;4.82;;;;;;;-146.25;100.00;52347.91;2078893;28;31456;-67
2023/08/01 02:34:01;;;;;;;9.10;5.50;;;;;;;-146.25;100.00;52368.19;2071370;28;20081;-68
2023/08/01 02:35:05;;;;;;;5.65;5.15;;;;;;;-146.25;100.00;52382.38;2078971;28;28561;-67
2023/08/01 02:36:07;;;;;;;8.95;5.00;;;;;;;-146.25;100.00;52354.00;2079551;28;31300;-68
2023/08/01 02:37:14;;;;;;;10.25;6.22;;;;;;;-146.25;100.00;52380.38;2080365;28;20080;-67
2023/08/01 02:38:15;;;;;;;8.63;6.15;;;;;;;-146.25;100.00;52396.59;2079833;28;29758;-67
2023/08/01 02:39:17;;;;;;;11.82;6.28;;;;;;;-146.25;100.00;52364.13;2080073;28;28013;-68
2023/08/01 02:40:19;;;;;;;9.43;6.15;;;;;;;-146.25;100.00;52343.88;2087673;28;24044;-67
2023/08/01 02:41:21;;;;;;;10.38;6.38;;;;;;;-146.25;100.00;52347.91;2087591;28;25204;-68
2023/08/01 02:42:22;;;;;;;10.57;7.07;;;;;;;-146.25;100.00;52400.63;2080472;28;20045;-68
2023/08/01 02:43:24;;;;;;;11.27;6.70;;;;;;;-146.25;100.00;52327.66;2079013;28;33095;-68
2023/08/01 02:44:26;;;;;;;13.00;7.78;;;;;;;-146.25;100.00;52356.03;2079834;28;22438;-68
2023/08/01 02:45:32;;;;;;;11.05;8.15;;;;;;;-146.25;100.00;52362.13;2071314;28;20108;-68
2023/08/01 02:46:34;;;;;;;14.18;8.30;;;;;;;-146.25;100.00;52364.13;2071762;28;29830;-69
2023/08/01 02:47:39;;;;;;;12.88;9.43;;;;;;;-146.25;100.00;52394.56;2087431;28;20042;-68
2023/08/01 02:48:40;;;;;;;15.00;9.13;;;;;;;-146.25;100.00;52394.56;2087680;28;27450;-68
2023/08/01 02:49:42;;;;;;;16.95;9.27;;;;;;;-146.25;100.00;52364.13;2079128;28;34225;-68
2023/08/01 02:50:45;;;;;;;12.73;10.15;;;;;;;-146.25;100.00;52380.38;2079732;28;20029;-68
2023/08/01 02:51:47;;;;;;;13.98;11.07;;;;;;;-146.25;100.00;52362.13;2087567;28;20156;-68
2023/08/01 02:52:49;;;;;;;15.38;10.57;;;;;;;-146.25;100.00;52364.13;2087521;28;20164;-68
2023/08/01 02:53:51;;;;;;;14.02;11.15;;;;;;;-146.25;100.00;52416.84;2079664;28;27442;-68
2023/08/01 02:54:52;;;;;;;18.08;12.38;;;;;;;-146.25;100.00;52341.84;2079306;28;20554;-68
2023/08/01 02:55:54;;;;;;;20.60;12.98;;;;;;;-146.25;100.00;52376.31;2071224;28;20109;-68
2023/08/01 02:56:56;;;;;;;19.67;12.15;;;;;;;-146.25;100.00;52349.94;2079360;28;26147;-68
2023/08/01 02:57:58;;;;;;;17.05;11.82;;;;;;;-146.25;100.00;52376.31;2080180;28;24667;-68
2023/08/01 02:58:59;;;;;;;20.83;12.88;;;;;;;-146.25;100.00;52358.06;2079588;28;27238;-68
2023/08/01 03:00:05;;;;;;;20.17;13.25;;;;;;;-146.25;100.00;52394.56;2079963;28;29837;-68
2023/08/01 03:01:09;;;;;;;16.60;11.60;;;;;;;-146.25;100.00;52370.22;2079823;28;31017;-67
2023/08/01 03:02:11;;;;;;;18.27;12.20;;;;;;;-146.25;100.00;52376.31;2080180;28;20930;-69
2023/08/01 03:03:13;;;;;;;17.42;12.45;;;;;;;-146.25;100.00;52384.41;2087075;28;34282;-68
2023/08/01 03:04:16;;;;;;;20.50;13.18;;;;;;;-146.25;100.00;52384.41;2087489;28;20037;-68
2023/08/01 03:05:18;;;;;;;19.00;12.98;;;;;;;-146.25;100.00;52378.34;2080089;28;20042;-68
2023/08/01 03:06:20;;;;;;;21.45;13.70;;;;;;;-146.25;100.00;52368.19;2080157;28;29658;-69
2023/08/01 03:07:21;;;;;;;19.80;13.18;;;;;;;-146.25;100.00;52374.28;2079485;28;20906;-68
2023/08/01 03:08:23;;;;;;;24.38;14.25;;;;;;;-146.25;100.00;52372.25;2079200;28;29774;-68
2023/08/01 03:09:25;;;;;;;23.92;14.57;;;;;;;-146.25;100.00;52368.19;2086956;28;34073;-68
2023/08/01 03:10:27;;;;;;;21.85;15.07;;;;;;;-146.25;100.00;52360.09;2079780;28;28134;-68
2023/08/01 03:11:37;;;;;;;24.73;15.50;;;;;;;-146.25;100.00;52354.00;2080020;28;30111;-68
2023/08/01 03:12:39;;;;;;;22.33;14.82;;;;;;;-146.25;100.00;52368.19;2087615;28;20068;-68
2023/08/01 03:13:41;;;;;;;22.70;15.98;;;;;;;-146.25;100.00;52343.88;2087211;28;32271;-69
2023/08/01 03:14:45;;;;;;;23.52;15.52;;;;;;;-146.25;100.00;52370.22;2080042;28;23589;-68
2023/08/01 03:15:47;;;;;;;24.05;15.48;;;;;;;-146.25;100.00;52360.09;2078759;28;33043;-68
2023/08/01 03:16:49;;;;;;;25.60;15.85;;;;;;;-146.25;100.00;52331.69;2079114;28;25320;-68
2023/08/01 03:17:50;;;;;;;24.13;15.65;;;;;;;-146.25;100.00;52386.44;2078558;28;27298;-68
2023/08/01 03:18:52;;;;;;;24.88;16.13;;;;;;;-146.25;100.00;52358.06;2079174;28;28868;-69
2023/08/01 03:19:56;;;;;;;25.65;16.40;;;;;;;-146.25;100.00;52424.97;2087225;28;20034;-68
2023/08/01 03:20:58;;;;;;;25.88;15.73;;;;;;;-146.25;100.00;52376.31;2079390;28;20169;-68
2023/08/01 03:22:03;;;;;;;25.55;15.32;;;;;;;-146.25;100.00;52396.59;2079054;28;28287;-68
2023/08/01 03:23:05;;;;;;;25.88;15.93;;;;;;;-146.25;100.00;52412.81;2071205;28;20177;-68
2023/08/01 03:24:11;;;;;;;24.02;16.60;;;;;;;-146.25;100.00;52396.59;2071920;28;20050;-67
2023/08/01 03:25:13;;;;;;;23.38;15.68;;;;;;;-146.25;100.00;52384.41;2079485;28;22670;-67
2023/08/01 03:26:18;;;;;;;22.45;15.38;;;;;;;-146.25;100.00;52360.09;2071298;28;27852;-68
2023/08/01 03:27:19;;;;;;;25.15;15.85;;;;;;;-146.25;100.00;52372.25;2079130;28;24291;-67
2023/08/01 03:28:21;;;;;;;27.40;17.00;;;;;;;-146.25;100.00;52382.38;2080647;28;20288;-68
2023/08/01 03:29:23;;;;;;;23.20;15.65;;;;;;;-146.25;100.00;52384.41;2080098;28;20042;-67
2023/08/01 03:30:25;;;;;;;24.55;16.08;;;;;;;-146.25;100.00;52398.59;2070865;28;22241;-67
2023/08/01 03:31:29;;;;;;;23.30;16.02;;;;;;;-146.25;100.00;52378.34;2063648;28;20095;-68
2023/08/01 03:32:31;;;;;;;23.83;16.95;;;;;;;-146.25;100.00;52370.22;2078615;28;26580;-68
2023/08/01 03:33:34;;;;;;;30.98;17.75;;;;;;;-146.25;100.00;52362.13;2087176;28;28175;-68
2023/08/01 03:34:36;;;;;;;28.35;17.60;;;;;;;-146.25;100.00;52343.88;2079406;28;20046;-66
2023/08/01 03:35:41;;;;;;;27.80;17.27;;;;;;;-146.25;100.00;52349.94;2078767;28;20188;-67
2023/08/01 03:36:43;;;;;;;24.98;17.50;;;;;;;-146.25;100.00;52396.59;2079580;28;27271;-67
2023/08/01 03:37:46;;;;;;;24.70;17.48;;;;;;;-146.25;100.00;52364.13;2087558;28;20100;-68
2023/08/01 03:38:47;;;;;;;23.63;16.95;;;;;;;-146.25;100.00;52376.31;2079333;28;31274;-66
2023/08/01 03:39:52;;;;;;;28.58;17.85;;;;;;;-146.25;100.00;52372.25;2079708;28;20038;-67
2023/08/01 03:40:55;;;;;;;22.25;16.02;;;;;;;-146.25;100.00;52362.13;2080916;28;20096;-67
2023/08/01 03:41:57;;;;;;;24.92;15.95;;;;;;;-146.25;100.00;52378.34;2088465;28;31435;-67
2023/08/01 03:43:01;;;;;;;23.65;14.95;;;;;;;-146.25;100.00;52354.00;2088321;28;20116;-67
2023/08/01 03:44:03;;;;;;;22.58;14.90;;;;;;;-146.25;100.00;52364.13;2081092;28;28052;-67
2023/08/01 03:45:10;;;;;;;23.13;13.77;;;;;;;-146.25;100.00;52388.47;2081488;28;21091;-68
2023/08/01 03:46:14;;;;;;;21.02;12.10;;;;;;;-146.25;100.00;52392.53;2083783;28;20045;-67
2023/08/01 03:47:15;;;;;;;15.60;11.00;;;;;;;-146.25;100.00;52382.38;2087940;28;33219;-67
2023/08/01 03:48:17;;;;;;;15.55;10.70;;;;;;;-146.25;100.00;52384.41;2088125;28;27115;-67
2023/08/01 03:49:19;;;;;;;15.55;10.50;;;;;;;-146.25;100.00;52337.78;2089202;28;28999;-67
2023/08/01 03:50:21;;;;;;;18.20;10.48;;;;;;;-146.25;100.00;52362.13;2085760;28;36264;-67
2023/08/01 03:51:24;;;;;;;16.08;10.57;;;;;;;-146.25;100.00;52394.56;2080720;28;20177;-67
2023/08/01 03:52:26;;;;;;;15.00;11.40;;;;;;;-146.25;100.00;52384.41;2080521;28;22217;-67
2023/08/01 03:53:28;;;;;;;15.70;10.95;;;;;;;-146.25;100.00;52354.00;2080781;28;29256;-67
2023/08/01 03:54:30;;;;;;;14.90;10.40;;;;;;;-146.25;100.00;52382.38;2080321;28;20096;-67
2023/08/01 03:55:32;;;;;;;16.13;11.77;;;;;;;-146.25;100.00;52349.94;2080154;28;31931;-67
2023/08/01 03:56:34;;;;;;;12.95;11.00;;;;;;;-146.25;100.00;52341.84;2080194;28;31075;-67
2023/08/01 03:57:36;;;;;;;16.23;11.80;;;;;;;-146.25;100.00;52380.38;2079610;28;36290;-67
2023/08/01 03:58:38;;;;;;;17.27;12.75;;;;;;;-146.25;100.00;52376.31;2079959;28;31449;-66
2023/08/01 03:59:39;;;;;;;18.15;11.82;;;;;;;-146.25;100.00;52378.34;2080041;28;31225;-67
2023/08/01 04:00:43;;;;;;;17.58;11.48;;;;;;;-146.25;100.00;52398.59;2080246;28;29661;-67
2023/08/01 04:01:45;;;;;;;15.93;12.05;;;;;;;-146.25;100.00;52388.47;2087446;28;31633;-67
2023/08/01 04:02:49;;;;;;;15.07;11.68;;;;;;;-146.25;100.00;52380.38;2087195;28;20030;-67
2023/08/01 04:03:52;;;;;;;18.00;12.57;;;;;;;-146.25;100.00;52366.16;2080701;28;20160;-67
2023/08/01 04:04:57;;;;;;;17.73;11.52;;;;;;;-146.25;100.00;52335.75;2080123;28;25768;-67
2023/08/01 04:05:59;;;;;;;19.63;13.30;;;;;;;-146.25;100.00;52372.25;2080054;28;30229;-66
2023/08/01 04:07:00;;;;;;;15.88;11.25;;;;;;;-146.25;100.00;52366.16;2080258;28;30896;-67
2023/08/01 04:08:04;;;;;;;17.40;10.85;;;;;;;-146.25;100.00;52354.00;2080595;28;21462;-67
2023/08/01 04:09:06;;;;;;;13.75;10.20;;;;;;;-146.25;100.00;52368.19;2079713;28;37962;-67
2023/08/01 04:10:09;;;;;;;18.08;9.57;;;;;;;-146.25;100.00;52388.47;2079875;28;34773;-69
2023/08/01 04:11:11;;;;;;;17.17;10.43;;;;;;;-146.25;100.00;52392.53;2079624;28;33945;-67
2023/08/01 04:12:13;;;;;;;13.98;9.50;;;;;;;-146.25;100.00;52349.94;2080011;28;39820;-69
2023/08/01 04:13:14;;;;;;;15.80;9.23;;;;;;;-146.25;100.00;52356.03;2080256;28;35017;-68
2023/08/01 04:14:16;;;;;;;12.95;8.80;;;;;;;-146.25;100.00;52372.25;2080190;28;34524;-69
2023/08/01 04:15:18;;;;;;;13.57;8.93;;;;;;;-146.25;100.00;52360.09;2087720;28;35695;-68
2023/08/01 04:16:22;;;;;;;12.18;7.57;;;;;;;-146.25;100.00;52356.03;2087962;28;20041;-69
2023/08/01 04:17:24;;;;;;;11.23;7.60;;;;;;;-146.25;100.00;52382.38;2079918;28;36662;-69
2023/08/01 04:18:26;;;;;;;9.13;6.65;;;;;;;-146.25;100.00;52376.31;2080852;28;35962;-69
2023/08/01 04:19:28;;;;;;;15.23;6.82;;;;;;;-146.25;100.00;52351.97;2080535;28;36405;-69
2023/08/01 04:20:29;;;;;;;10.20;6.07;;;;;;;-146.25;100.00;52418.88;2080330;28;36589;-68
2023/08/01 04:21:31;;;;;;;12.65;6.88;;;;;;;-146.25;100.00;52394.56;2080881;28;23683;-68
2023/08/01 04:22:33;;;;;;;10.02;6.15;;;;;;;-146.25;100.00;52384.41;2080609;28;37890;-68
2023/08/01 04:23:35;;;;;;;10.63;6.47;;;;;;;-146.25;100.00;52360.09;2080669;28;36237;-68
2023/08/01 04:24:36;;;;;;;9.35;6.35;;;;;;;-146.25;100.00;52406.72;2081405;28;33525;-68
2023/08/01 04:25:42;;;;;;;11.93;6.35;;;;;;;-146.25;100.00;52368.19;2080595;28;36822;-68
2023/08/01 04:26:43;;;;;;;7.95;5.82;;;;;;;-146.25;100.00;52378.34;2088781;28;20156;-69
2023/08/01 04:27:45;;;;;;;10.50;6.15;;;;;;;-146.25;100.00;52396.59;2087534;28;38682;-69
2023/08/01 04:28:47;;;;;;;10.05;6.43;;;;;;;-146.25;100.00;52364.13;2080635;28;33706;-69
2023/08/01 04:29:49;;;;;;;8.40;5.97;;;;;;;-146.25;100.00;52358.06;2080336;28;34245;-68
2023/08/01 04:30:52;;;;;;;10.50;5.82;;;;;;;-146.25;100.00;52335.75;2080865;28;36837;-68
2023/08/01 04:31:53;;;;;;;10.45;6.45;;;;;;;-146.25;100.00;52384.41;2079653;28;35668;-69
2023/08/01 04:32:55;;;;;;;12.05;6.43;;;;;;;-146.25;100.00;52418.88;2079969;28;36349;-69
2023/08/01 04:33:57;;;;;;;8.73;6.72;;;;;;;-146.25;100.00;52347.91;2080885;28;33642;-69
2023/08/01 04:35:01;;;;;;;9.75;6.90;;;;;;;-146.25;100.00;52380.38;2080759;28;35611;-69
2023/08/01 04:36:06;;;;;;;10.50;6.88;;;;;;;-146.25;100.00;52364.13;2080366;28;38898;-69
2023/08/01 04:37:08;;;;;;;12.40;7.40;;;;;;;-146.25;100.00;52406.72;2080449;28;33158;-69
2023/08/01 04:38:11;;;;;;;12.35;7.28;;;;;;;-146.25;100.00;52392.53;2079540;28;35611;-69
2023/08/01 04:39:13;;;;;;;12.88;7.95;;;;;;;-146.25;100.00;52384.41;2080547;28;34910;-68
2023/08/01 04:40:17;;;;;;;10.93;7.22;;;;;;;-146.25;100.00;52368.19;2080955;28;26990;-68